createdAt,value
2022-12-28T00:01:28.688Z,19.67
2022-12-28T00:03:55.886Z,13.60
2022-12-28T00:06:24.401Z,23.27
2022-12-28T00:08:54.419Z,16.77
2022-12-28T00:11:28.326Z,14.77
2022-12-28T00:14:00.088Z,17.83
2022-12-28T00:16:35.127Z,20.60
2022-12-28T00:19:04.107Z,12.50
2022-12-28T00:21:31.008Z,16.17
2022-12-28T00:23:58.992Z,16.77
2022-12-28T00:26:27.247Z,15.73
2022-12-28T00:28:58.385Z,17.67
2022-12-28T00:31:30.283Z,17.40
2022-12-28T00:33:56.900Z,17.13
2022-12-28T00:36:23.413Z,16.83
2022-12-28T00:38:49.960Z,17.53
2022-12-28T00:41:16.735Z,17.17
2022-12-28T00:43:43.281Z,18.40
2022-12-28T00:46:10.103Z,14.07
2022-12-28T00:48:36.662Z,16.10
2022-12-28T00:51:14.906Z,13.27
2022-12-28T00:53:41.787Z,18.07
2022-12-28T00:56:14.590Z,14.03
2022-12-28T00:58:42.027Z,19.27
2022-12-28T01:01:13.861Z,14.53
2022-12-28T01:03:40.376Z,17.37
2022-12-28T01:06:08.297Z,16.37
2022-12-28T01:08:38.440Z,13.80
2022-12-28T01:11:08.860Z,15.30
2022-12-28T01:13:36.165Z,17.80
2022-12-28T01:16:20.570Z,18.20
2022-12-28T01:18:47.737Z,18.13
2022-12-28T01:21:20.192Z,17.13
2022-12-28T01:23:47.610Z,17.33
2022-12-28T01:26:15.066Z,16.47
2022-12-28T01:28:41.973Z,18.60
2022-12-28T01:31:13.914Z,16.90
2022-12-28T01:33:41.076Z,16.10
2022-12-28T01:36:09.344Z,19.00
2022-12-28T01:38:36.385Z,18.63
2022-12-28T01:41:02.995Z,15.17
2022-12-28T01:43:55.919Z,13.17
2022-12-28T01:46:23.010Z,15.83
2022-12-28T01:48:57.409Z,16.73
2022-12-28T01:51:24.648Z,19.70
2022-12-28T01:53:52.905Z,16.80
2022-12-28T01:56:20.351Z,15.67
2022-12-28T01:58:46.980Z,23.93
2022-12-28T02:01:13.561Z,20.83
2022-12-28T02:03:40.157Z,18.43
2022-12-28T02:06:09.965Z,23.97
2022-12-28T02:08:41.370Z,21.37
2022-12-28T02:11:11.700Z,24.20
2022-12-28T02:13:39.123Z,15.87
2022-12-28T02:16:05.939Z,23.00
2022-12-28T02:18:32.707Z,16.80
2022-12-28T02:21:25.506Z,16.60
2022-12-28T02:24:16.814Z,20.87
2022-12-28T02:27:04.526Z,17.83
2022-12-28T02:29:34.546Z,20.40
2022-12-28T02:32:15.571Z,22.23
2022-12-28T02:34:49.061Z,18.77
2022-12-28T02:37:33.272Z,25.23
2022-12-28T02:40:05.263Z,23.27
2022-12-28T02:42:31.769Z,19.23
2022-12-28T02:45:16.721Z,19.90
2022-12-28T02:48:03.259Z,19.93
2022-12-28T02:50:54.278Z,22.07
2022-12-28T02:53:32.044Z,25.50
2022-12-28T02:56:24.116Z,19.33
2022-12-28T02:59:24.824Z,20.33
2022-12-28T03:02:10.970Z,25.87
2022-12-28T03:04:43.420Z,20.50
2022-12-28T03:07:41.629Z,21.97
2022-12-28T03:10:24.052Z,23.30
2022-12-28T03:12:57.318Z,22.00
2022-12-28T03:15:34.176Z,21.87
2022-12-28T03:18:38.059Z,19.53
2022-12-28T03:21:25.995Z,23.90
2022-12-28T03:24:11.970Z,18.83
2022-12-28T03:27:00.169Z,17.73
2022-12-28T03:29:46.012Z,19.30
2022-12-28T03:32:12.562Z,22.73
2022-12-28T03:34:39.186Z,24.10
2022-12-28T03:37:25.768Z,27.73
2022-12-28T03:40:34.749Z,22.73
2022-12-28T03:43:26.247Z,20.27
2022-12-28T03:46:15.374Z,21.10
2022-12-28T03:48:43.423Z,18.63
2022-12-28T03:51:11.704Z,19.33
2022-12-28T03:53:41.633Z,20.67
2022-12-28T03:56:16.657Z,22.10
2022-12-28T03:58:43.199Z,17.77
2022-12-28T04:01:09.999Z,21.97
2022-12-28T04:03:36.910Z,23.47
2022-12-28T04:06:04.356Z,18.90
2022-12-28T04:08:31.810Z,17.90
2022-12-28T04:11:01.699Z,21.70
2022-12-28T04:13:31.798Z,16.87
2022-12-28T04:15:59.354Z,19.53
2022-12-28T04:18:25.910Z,21.20
2022-12-28T04:20:52.531Z,18.47
2022-12-28T04:23:19.344Z,27.90
2022-12-28T04:25:59.968Z,22.07
2022-12-28T04:28:26.671Z,21.70
2022-12-28T04:30:53.168Z,22.37
2022-12-28T04:33:20.492Z,17.67
2022-12-28T04:35:46.956Z,26.83
2022-12-28T04:38:13.543Z,22.13
2022-12-28T04:40:40.109Z,24.87
2022-12-28T04:43:06.866Z,29.43
2022-12-28T04:45:33.644Z,21.70
2022-12-28T04:48:00.387Z,26.97
2022-12-28T04:50:27.250Z,30.43
2022-12-28T04:52:54.559Z,25.67
2022-12-28T04:55:32.497Z,22.07
2022-12-28T04:58:00.359Z,26.30
2022-12-28T05:00:26.937Z,26.90
2022-12-28T05:02:53.592Z,25.27
2022-12-28T05:05:20.396Z,21.17
2022-12-28T05:07:46.849Z,26.87
2022-12-28T05:10:13.312Z,19.80
2022-12-28T05:12:39.958Z,28.93
2022-12-28T05:15:07.110Z,27.07
2022-12-28T05:17:33.882Z,24.77
2022-12-28T05:20:00.429Z,27.07
2022-12-28T05:22:26.932Z,25.23
2022-12-28T05:24:53.409Z,26.07
2022-12-28T05:27:20.366Z,28.90
2022-12-28T05:29:47.032Z,24.60
2022-12-28T05:32:13.543Z,22.13
2022-12-28T05:34:40.094Z,21.20
2022-12-28T05:37:06.623Z,20.53
2022-12-28T05:39:33.118Z,20.67
2022-12-28T05:42:00.798Z,21.30
2022-12-28T05:44:27.785Z,25.20
2022-12-28T05:46:54.341Z,23.10
2022-12-28T05:49:21.100Z,25.97
2022-12-28T05:51:50.408Z,27.97
2022-12-28T05:54:16.983Z,23.80
2022-12-28T05:56:43.620Z,26.33
2022-12-28T05:59:10.215Z,25.80
2022-12-28T06:01:39.232Z,26.07
2022-12-28T06:04:14.638Z,27.30
2022-12-28T06:06:41.214Z,25.77
2022-12-28T06:09:07.903Z,26.70
2022-12-28T06:11:34.419Z,24.33
2022-12-28T06:14:00.945Z,21.40
2022-12-28T06:16:29.464Z,25.20
2022-12-28T06:18:56.659Z,21.43
2022-12-28T06:21:25.653Z,24.53
2022-12-28T06:23:52.334Z,22.83
2022-12-28T06:26:20.942Z,24.47
2022-12-28T06:28:47.869Z,20.53
2022-12-28T06:31:22.762Z,21.90
2022-12-28T06:33:50.382Z,22.50
2022-12-28T06:36:20.865Z,26.70
2022-12-28T06:38:48.752Z,23.97
2022-12-28T06:41:17.152Z,26.40
2022-12-28T06:43:44.311Z,26.93
2022-12-28T06:46:11.741Z,27.77
2022-12-28T06:48:38.690Z,26.27
2022-12-28T06:51:07.880Z,28.43
2022-12-28T06:53:36.532Z,24.77
2022-12-28T06:56:08.696Z,26.03
2022-12-28T06:58:35.288Z,27.73
2022-12-28T07:01:10.630Z,29.33
2022-12-28T07:03:37.827Z,29.20
2022-12-28T07:06:05.233Z,33.30
2022-12-28T07:08:32.674Z,27.80
2022-12-28T07:11:25.445Z,39.03
2022-12-28T07:13:52.750Z,32.23
2022-12-28T07:16:21.632Z,28.07
2022-12-28T07:18:51.987Z,28.80
2022-12-28T07:21:30.429Z,25.20
2022-12-28T07:23:57.826Z,22.93
2022-12-28T07:26:27.343Z,26.57
2022-12-28T07:28:55.713Z,27.97
2022-12-28T07:31:24.519Z,31.93
2022-12-28T07:33:52.407Z,28.53
2022-12-28T07:36:23.718Z,26.17
2022-12-28T07:38:50.788Z,26.20
2022-12-28T07:41:23.587Z,24.83
2022-12-28T07:43:50.792Z,33.03
2022-12-28T07:46:21.144Z,28.97
2022-12-28T07:48:48.086Z,29.33
2022-12-28T07:51:16.269Z,28.53
2022-12-28T07:53:44.500Z,22.80
2022-12-28T07:56:12.175Z,27.90
2022-12-28T08:01:06.330Z,29.37
2022-12-28T08:03:33.174Z,25.07
2022-12-28T08:06:07.480Z,26.40
2022-12-28T08:08:35.919Z,22.30
2022-12-28T08:11:06.867Z,22.90
2022-12-28T08:13:35.197Z,21.30
2022-12-28T08:16:02.654Z,27.73
2022-12-28T08:18:29.559Z,18.00
2022-12-28T08:21:04.176Z,27.30
2022-12-28T08:23:31.687Z,19.47
2022-12-28T09:09:11.168Z,21.03
2022-12-28T09:11:39.165Z,15.97
2022-12-28T09:14:07.576Z,16.63
2022-12-28T09:16:34.385Z,22.13
2022-12-28T09:19:03.442Z,24.90
2022-12-28T09:21:37.157Z,25.73
2022-12-28T09:24:04.655Z,22.37
2022-12-28T09:26:32.686Z,19.13
2022-12-28T09:29:01.262Z,21.80
2022-12-28T09:31:29.925Z,20.10
2022-12-28T09:36:49.202Z,18.30
2022-12-28T09:39:25.028Z,14.00
2022-12-28T09:42:03.496Z,20.13
2022-12-28T09:45:01.354Z,15.30
2022-12-28T09:47:47.317Z,21.20
2022-12-28T09:50:17.112Z,15.77
2022-12-28T09:53:04.130Z,16.77
2022-12-28T09:55:31.891Z,18.20
2022-12-28T09:57:59.658Z,20.70
2022-12-28T10:00:36.875Z,19.67
2022-12-28T10:03:07.393Z,13.33
2022-12-28T10:05:34.395Z,18.27
2022-12-28T10:08:01.223Z,16.83
2022-12-28T10:10:28.690Z,15.00
2022-12-28T10:12:55.392Z,14.13
2022-12-28T10:15:23.301Z,12.93
2022-12-28T10:17:49.828Z,17.30
2022-12-28T10:20:20.647Z,17.17
2022-12-28T10:22:53.419Z,14.23
2022-12-28T10:25:25.643Z,15.80
2022-12-28T10:27:53.563Z,13.47
2022-12-28T10:30:26.758Z,13.63
2022-12-28T10:33:02.098Z,13.27
2022-12-28T10:35:36.212Z,14.27
2022-12-28T10:38:04.626Z,17.40
2022-12-28T10:40:34.405Z,13.03
2022-12-28T10:43:04.159Z,16.63
2022-12-28T10:45:39.704Z,14.27
2022-12-28T10:48:28.594Z,10.87
2022-12-28T10:50:59.641Z,18.67
2022-12-28T10:53:27.626Z,14.50
2022-12-28T10:56:12.456Z,16.57
2022-12-28T10:58:50.618Z,18.67
2022-12-28T11:01:28.894Z,15.80
2022-12-28T11:03:55.417Z,17.20
2022-12-28T11:06:29.516Z,16.40
2022-12-28T11:09:07.206Z,11.67
2022-12-28T11:11:34.188Z,12.03
2022-12-28T11:14:09.298Z,15.97
2022-12-28T11:16:40.662Z,14.73
2022-12-28T11:19:07.312Z,8.00
2022-12-28T11:21:35.225Z,13.27
2022-12-28T11:24:02.019Z,13.50
2022-12-28T11:26:29.445Z,16.57
2022-12-28T11:28:56.211Z,16.27
2022-12-28T11:31:28.277Z,12.13
2022-12-28T11:33:58.199Z,10.73
2022-12-28T11:36:26.109Z,14.33
2022-12-28T11:38:55.251Z,19.07
2022-12-28T11:41:30.167Z,20.37
2022-12-28T11:44:02.730Z,17.83
2022-12-28T11:46:35.419Z,21.37
2022-12-28T11:49:04.217Z,19.60
2022-12-28T11:51:32.302Z,18.67
2022-12-28T11:54:01.766Z,15.77
2022-12-28T11:56:49.390Z,14.13
2022-12-28T11:59:25.983Z,15.40
2022-12-28T12:01:54.740Z,16.03
2022-12-28T12:04:30.433Z,16.53
2022-12-28T12:07:01.354Z,17.10
2022-12-28T13:08:48.417Z,14.50
2022-12-28T13:11:15.668Z,20.53
2022-12-28T13:13:46.756Z,20.50
2022-12-28T13:16:21.823Z,21.40
2022-12-28T13:19:02.915Z,14.73
2022-12-28T13:21:39.069Z,16.43
2022-12-28T13:24:27.541Z,18.37
2022-12-28T13:26:58.485Z,18.93
2022-12-28T13:29:38.009Z,16.70
2022-12-28T13:32:04.679Z,18.93
2022-12-28T13:34:35.945Z,17.97
2022-12-28T13:37:11.798Z,17.03
2022-12-28T13:39:42.138Z,22.57
2022-12-28T13:42:25.162Z,16.93
2022-12-28T13:45:02.662Z,15.23
2022-12-28T13:47:35.936Z,18.50
2022-12-28T13:50:14.537Z,15.63
2022-12-28T13:52:56.528Z,14.77
2022-12-28T13:55:28.605Z,14.40
2022-12-28T13:57:59.983Z,20.33
2022-12-28T14:00:27.619Z,12.97
2022-12-28T14:02:55.659Z,14.83
2022-12-28T14:05:24.852Z,15.07
2022-12-28T14:07:52.311Z,14.50
2022-12-28T14:10:23.412Z,14.60
2022-12-28T14:12:50.849Z,18.00
2022-12-28T14:15:18.562Z,15.33
2022-12-28T14:17:50.418Z,17.07
2022-12-28T14:20:18.027Z,20.67
2022-12-28T14:22:45.584Z,19.93
2022-12-28T14:25:15.653Z,11.87
2022-12-28T14:27:57.433Z,16.83
2022-12-28T14:30:32.673Z,12.77
2022-12-28T14:33:09.909Z,19.53
2022-12-28T14:35:47.333Z,15.80
2022-12-28T14:38:19.399Z,20.60
2022-12-28T14:40:53.270Z,13.00
2022-12-28T14:43:42.595Z,13.43
2022-12-28T14:46:17.686Z,15.13
2022-12-28T14:48:45.412Z,17.20
2022-12-28T14:51:14.834Z,11.57
2022-12-28T14:53:41.383Z,14.87
2022-12-28T14:56:14.447Z,15.33
2022-12-28T14:58:58.016Z,14.13
2022-12-28T15:01:25.508Z,12.40
2022-12-28T15:03:57.078Z,13.97
2022-12-28T15:06:27.343Z,17.87
2022-12-28T15:08:55.497Z,11.87
2022-12-28T15:11:24.172Z,10.67
2022-12-28T15:13:50.757Z,14.07
2022-12-28T15:16:20.252Z,12.00
2022-12-28T15:18:46.881Z,10.47
2022-12-28T15:21:21.680Z,15.10
2022-12-28T15:23:52.619Z,19.80
2022-12-28T15:26:20.225Z,16.90
2022-12-28T15:28:47.032Z,11.90
2022-12-28T15:31:18.467Z,11.77
2022-12-28T15:33:45.741Z,11.50
2022-12-28T15:36:17.878Z,12.53
2022-12-28T15:38:45.557Z,15.87
2022-12-28T15:41:30.772Z,15.63
2022-12-28T15:43:57.273Z,14.93
2022-12-28T15:46:24.143Z,12.57
2022-12-28T15:48:50.718Z,13.17
2022-12-28T15:51:17.355Z,17.50
2022-12-28T15:53:43.934Z,15.23
2022-12-28T15:56:20.996Z,18.37
2022-12-28T15:58:47.558Z,21.03
2022-12-28T16:01:14.195Z,15.43
2022-12-28T16:03:40.929Z,17.93
2022-12-28T16:06:07.624Z,13.97
2022-12-28T16:08:34.232Z,17.63
2022-12-28T16:11:14.173Z,16.90
2022-12-28T16:13:40.776Z,15.73
2022-12-28T16:16:08.845Z,17.00
2022-12-28T16:18:35.672Z,14.80
2022-12-28T16:21:04.185Z,16.30
2022-12-28T16:23:32.142Z,14.87
2022-12-28T16:25:59.620Z,17.03
2022-12-28T16:28:26.883Z,16.33
2022-12-28T16:30:54.191Z,16.57
2022-12-28T16:33:21.253Z,11.83
2022-12-28T16:35:50.824Z,14.00
2022-12-28T16:38:23.424Z,12.63
2022-12-28T16:40:50.390Z,12.80
2022-12-28T16:43:19.848Z,15.47
2022-12-28T16:45:46.402Z,10.50
2022-12-28T16:48:15.988Z,12.83
2022-12-28T16:50:42.591Z,16.23
2022-12-28T16:53:09.252Z,14.50
2022-12-28T16:55:41.992Z,15.43
2022-12-28T16:58:09.086Z,15.87
2022-12-28T17:00:36.253Z,19.00
2022-12-28T17:03:06.230Z,15.00
2022-12-28T17:05:34.414Z,16.13
2022-12-28T17:08:01.540Z,16.17
2022-12-28T17:10:28.573Z,15.10
2022-12-28T17:12:55.669Z,17.23
2022-12-28T17:15:22.707Z,15.67
2022-12-28T17:17:49.405Z,15.83
2022-12-28T17:20:16.068Z,18.20
2022-12-28T17:22:42.993Z,15.10
2022-12-28T17:25:09.627Z,14.03
2022-12-28T17:27:36.515Z,18.97
2022-12-28T17:30:03.470Z,19.00
2022-12-28T17:32:29.958Z,18.73
2022-12-28T17:34:56.629Z,18.73
2022-12-28T17:37:23.184Z,15.90
2022-12-28T17:39:49.848Z,18.97
2022-12-28T17:42:19.698Z,18.00
2022-12-28T17:44:48.472Z,17.80
2022-12-28T17:47:15.281Z,19.13
2022-12-28T17:49:41.905Z,21.53
2022-12-28T17:52:08.594Z,15.70
2022-12-28T17:54:35.198Z,17.03
2022-12-28T17:57:01.786Z,16.80
2022-12-28T17:59:28.323Z,16.80
2022-12-28T18:01:54.979Z,19.37
2022-12-28T18:04:21.562Z,17.13
2022-12-28T18:06:48.035Z,16.83
2022-12-28T18:09:14.523Z,16.17
2022-12-28T18:11:41.073Z,17.67
2022-12-28T18:14:07.866Z,15.07
2022-12-28T18:16:34.525Z,18.83
2022-12-28T18:19:01.128Z,18.67
2022-12-28T18:21:28.436Z,16.30
2022-12-28T18:23:55.244Z,14.83
2022-12-28T18:26:26.148Z,16.83
2022-12-28T18:28:53.992Z,19.97
2022-12-28T18:31:21.241Z,19.13
2022-12-28T18:33:48.170Z,18.20
2022-12-28T18:36:17.713Z,17.97
2022-12-28T18:38:46.395Z,15.27
2022-12-28T18:41:14.870Z,17.80
2022-12-28T18:43:41.719Z,18.10
2022-12-28T18:46:08.938Z,16.47
2022-12-28T18:48:37.933Z,18.87
2022-12-28T18:51:09.845Z,15.50
2022-12-28T18:53:36.410Z,16.60
2022-12-28T18:56:05.847Z,18.33
2022-12-28T18:58:34.808Z,18.87
2022-12-28T19:04:10.869Z,16.90
2022-12-28T19:06:38.027Z,18.33
2022-12-28T19:09:05.545Z,17.73
2022-12-28T19:11:32.519Z,22.37
2022-12-28T19:13:59.048Z,19.10
2022-12-28T19:16:31.069Z,14.50
2022-12-28T19:18:58.678Z,14.37
2022-12-28T19:21:26.978Z,12.47
2022-12-28T19:23:58.445Z,14.73
2022-12-28T19:26:25.477Z,19.47
2022-12-28T19:28:52.547Z,18.53
2022-12-28T19:31:19.532Z,13.63
2022-12-28T19:33:46.941Z,14.53
2022-12-28T19:36:13.765Z,17.37
2022-12-28T19:38:40.505Z,14.23
2022-12-28T19:41:09.460Z,15.27
2022-12-28T19:43:36.296Z,15.63
2022-12-28T19:46:23.583Z,16.37
2022-12-28T19:48:53.653Z,16.60
2022-12-28T19:51:23.491Z,16.53
2022-12-28T19:53:54.505Z,15.33
2022-12-28T19:56:22.124Z,13.67
2022-12-28T19:58:48.809Z,15.47
2022-12-28T20:01:17.664Z,15.23
2022-12-28T20:03:45.209Z,18.63
2022-12-28T20:06:22.137Z,14.90
2022-12-28T20:08:50.702Z,14.17
2022-12-28T20:11:19.073Z,15.30
2022-12-28T20:13:50.765Z,15.57
2022-12-28T20:16:17.504Z,16.50
2022-12-28T20:18:47.612Z,16.03
2022-12-28T20:21:22.088Z,12.87
2022-12-28T20:23:50.141Z,13.97
2022-12-28T20:26:17.748Z,15.47
2022-12-28T20:28:45.200Z,15.90
2022-12-28T20:31:13.986Z,17.47
2022-12-28T20:33:41.427Z,17.80
2022-12-28T20:36:12.168Z,12.60
2022-12-28T20:38:38.921Z,15.37
2022-12-28T20:41:32.712Z,14.00
2022-12-28T20:44:00.390Z,14.60
2022-12-28T20:46:27.601Z,14.30
2022-12-28T20:48:54.669Z,16.93
2022-12-28T20:51:21.439Z,14.13
2022-12-28T20:53:48.328Z,14.57
2022-12-28T20:56:14.780Z,20.33
2022-12-28T20:58:41.636Z,17.80
2022-12-28T21:01:10.802Z,15.87
2022-12-28T21:03:37.526Z,15.77
2022-12-28T21:06:04.634Z,18.10
2022-12-28T21:08:31.873Z,14.20
2022-12-28T21:10:58.691Z,15.40
2022-12-28T21:13:25.357Z,17.23
2022-12-28T21:15:52.415Z,13.77
2022-12-28T21:18:20.048Z,14.03
2022-12-28T21:20:51.191Z,15.33
2022-12-28T21:23:17.981Z,18.00
2022-12-28T21:25:44.667Z,16.33
2022-12-28T21:28:11.681Z,18.17
2022-12-28T21:30:38.615Z,14.50
2022-12-28T21:33:05.701Z,14.43
2022-12-28T21:35:34.579Z,15.73
2022-12-28T21:38:02.419Z,16.13
2022-12-28T21:40:28.931Z,17.37
2022-12-28T21:42:55.409Z,18.40
2022-12-28T21:45:21.934Z,15.63
2022-12-28T21:47:48.575Z,18.27
2022-12-28T21:50:15.134Z,16.93
2022-12-28T21:52:41.581Z,19.17
2022-12-28T21:55:26.862Z,22.00
2022-12-28T21:57:54.177Z,17.80
2022-12-28T22:00:39.840Z,16.13
2022-12-28T22:03:25.276Z,14.90
2022-12-28T22:06:04.025Z,19.07
2022-12-28T22:08:50.027Z,15.47
2022-12-28T22:11:35.479Z,19.67
2022-12-28T22:14:02.098Z,13.87
2022-12-28T22:16:28.614Z,17.57
2022-12-28T22:19:03.256Z,14.90
2022-12-28T22:21:30.215Z,15.53
2022-12-28T22:23:56.845Z,17.90
2022-12-28T22:26:23.424Z,15.83
2022-12-28T22:28:49.939Z,17.13
2022-12-28T22:31:16.659Z,18.20
2022-12-28T22:33:43.370Z,17.50
2022-12-28T22:36:15.273Z,18.80
2022-12-28T22:38:41.784Z,18.03
2022-12-28T22:41:08.970Z,15.27
2022-12-28T22:43:35.604Z,16.50
2022-12-28T22:46:02.904Z,15.97
2022-12-28T22:48:29.556Z,15.87
2022-12-28T22:50:56.029Z,14.10
2022-12-28T22:53:22.525Z,18.30
2022-12-28T22:55:59.614Z,15.57
2022-12-28T22:58:27.024Z,16.77
2022-12-28T23:01:04.083Z,18.17
2022-12-28T23:03:30.943Z,12.20
2022-12-28T23:05:57.526Z,13.80
2022-12-28T23:08:24.073Z,12.00
2022-12-28T23:10:58.991Z,13.70
2022-12-28T23:13:26.886Z,13.57
2022-12-28T23:16:11.108Z,16.33
2022-12-28T23:18:56.521Z,15.60
2022-12-28T23:21:42.879Z,12.40
2022-12-28T23:24:31.469Z,13.43
2022-12-28T23:27:20.736Z,13.30
2022-12-28T23:29:47.304Z,21.83
2022-12-28T23:32:13.924Z,12.87
2022-12-28T23:34:40.398Z,11.57
2022-12-28T23:37:06.938Z,12.13
2022-12-28T23:39:33.607Z,12.17
2022-12-28T23:42:00.068Z,14.93
2022-12-28T23:44:26.828Z,12.87
2022-12-28T23:46:58.893Z,17.80
2022-12-28T23:49:26.272Z,13.23
2022-12-28T23:51:52.776Z,14.60
2022-12-28T23:54:26.163Z,11.03
2022-12-28T23:56:52.700Z,11.87
2022-12-28T23:59:19.996Z,11.43
